SAS651 EKCH-EDDH
Flight info
| Callsign | SAS651 |
|---|---|
| Flight time | 0h 31m |
| Altitude | 22000 |
| Route | NEXEN T503 MICOS N850 BOGMU BOGMU3P |
| Aircraft | A320/M-SDE3FGHIRWY/LB1 |
Departure
| Time | 2026-05-04 20:05 |
|---|---|
| Airport | Copenhagen Kastrup Airport (EKCH) |
Arrival
| Time | 2026-05-04 20:36 |
|---|---|
| Airport | Hamburg Helmut Schmidt Airport (EDDH) |
| Time | Latitude | Longitude | Altitude | Speed | Heading |
|---|---|---|---|---|---|
| 2026-05-04 19:31 | 55.62713 | 12.64460 | 25 ft | 0 kts | 102° |
| 2026-05-04 19:51 | 55.62716 | 12.64430 | 24 ft | 4 kts | 102° |
| 2026-05-04 19:51 | 55.62721 | 12.64392 | 26 ft | 4 kts | 97° |
| 2026-05-04 19:51 | 55.62717 | 12.64351 | 24 ft | 4 kts | 36° |
| 2026-05-04 19:52 | 55.62695 | 12.64332 | 26 ft | 4 kts | 21° |
| 2026-05-04 19:52 | 55.62670 | 12.64314 | 26 ft | 4 kts | 21° |
| 2026-05-04 19:52 | 55.62650 | 12.64301 | 26 ft | 4 kts | 23° |
| 2026-05-04 19:52 | 55.62626 | 12.64279 | 25 ft | 4 kts | 33° |
| 2026-05-04 19:53 | 55.62606 | 12.64252 | 25 ft | 4 kts | 60° |
| 2026-05-04 19:53 | 55.62601 | 12.64209 | 27 ft | 4 kts | 108° |
| 2026-05-04 19:53 | 55.62612 | 12.64170 | 24 ft | 4 kts | 123° |
| 2026-05-04 19:53 | 55.62627 | 12.64130 | 26 ft | 3 kts | 123° |
| 2026-05-04 19:54 | 55.62630 | 12.64123 | 26 ft | 0 kts | 123° |
| 2026-05-04 19:57 | 55.62625 | 12.64135 | 25 ft | 2 kts | 123° |
| 2026-05-04 19:57 | 55.62611 | 12.64172 | 24 ft | 5 kts | 123° |
| 2026-05-04 19:57 | 55.62582 | 12.64210 | 24 ft | 6 kts | 176° |
| 2026-05-04 19:58 | 55.62534 | 12.64203 | 24 ft | 8 kts | 155° |
| 2026-05-04 19:58 | 55.62494 | 12.64286 | 24 ft | 10 kts | 126° |
| 2026-05-04 19:58 | 55.62448 | 12.64392 | 25 ft | 11 kts | 128° |
| 2026-05-04 19:58 | 55.62399 | 12.64451 | 26 ft | 10 kts | 178° |
| 2026-05-04 19:59 | 55.62356 | 12.64432 | 23 ft | 2 kts | 195° |
| 2026-05-04 19:59 | 55.62349 | 12.64429 | 23 ft | 0 kts | 195° |
| 2026-05-04 20:02 | 55.62317 | 12.64413 | 24 ft | 12 kts | 195° |
| 2026-05-04 20:02 | 55.62224 | 12.64365 | 21 ft | 16 kts | 202° |
| 2026-05-04 20:02 | 55.62121 | 12.64278 | 23 ft | 17 kts | 205° |
| 2026-05-04 20:03 | 55.62009 | 12.64182 | 24 ft | 19 kts | 206° |
| 2026-05-04 20:03 | 55.61902 | 12.64094 | 24 ft | 15 kts | 204° |
| 2026-05-04 20:03 | 55.61798 | 12.64077 | 24 ft | 15 kts | 176° |
| 2026-05-04 20:03 | 55.61691 | 12.64089 | 28 ft | 16 kts | 176° |
| 2026-05-04 20:04 | 55.61665 | 12.64091 | 27 ft | 5 kts | 179° |
| 2026-05-04 20:04 | 55.61589 | 12.64010 | 26 ft | 32 kts | 220° |
| 2026-05-04 20:04 | 55.61242 | 12.63474 | 27 ft | 97 kts | 221° |
| 2026-05-04 20:04 | 55.60602 | 12.62482 | 27 ft | 146 kts | 221° |
| 2026-05-04 20:05 | 55.59759 | 12.61197 | 313 ft | 162 kts | 223° |
| 2026-05-04 20:05 | 55.58909 | 12.59892 | 979 ft | 162 kts | 224° |
| 2026-05-04 20:05 | 55.58047 | 12.58558 | 1471 ft | 172 kts | 225° |
| 2026-05-04 20:05 | 55.57425 | 12.57591 | 1638 ft | 187 kts | 225° |
| 2026-05-04 20:06 | 55.56364 | 12.56028 | 1883 ft | 212 kts | 220° |
| 2026-05-04 20:06 | 55.55097 | 12.54408 | 2265 ft | 237 kts | 218° |
| 2026-05-04 20:06 | 55.53682 | 12.52682 | 2815 ft | 254 kts | 217° |
| 2026-05-04 20:06 | 55.52205 | 12.50909 | 3716 ft | 258 kts | 217° |
| 2026-05-04 20:07 | 55.50720 | 12.49129 | 4695 ft | 259 kts | 217° |
| 2026-05-04 20:07 | 55.49231 | 12.47337 | 5626 ft | 260 kts | 217° |
| 2026-05-04 20:07 | 55.47737 | 12.45520 | 6535 ft | 262 kts | 218° |
| 2026-05-04 20:07 | 55.46233 | 12.43682 | 7383 ft | 264 kts | 218° |
| 2026-05-04 20:08 | 55.44718 | 12.41830 | 8207 ft | 267 kts | 218° |
| 2026-05-04 20:08 | 55.43184 | 12.39955 | 9042 ft | 270 kts | 218° |
| 2026-05-04 20:08 | 55.41628 | 12.38057 | 9842 ft | 273 kts | 218° |
| 2026-05-04 20:08 | 55.40039 | 12.36121 | 10348 ft | 287 kts | 218° |
| 2026-05-04 20:09 | 55.38330 | 12.34037 | 10548 ft | 310 kts | 218° |
| 2026-05-04 20:09 | 55.36513 | 12.31824 | 10943 ft | 323 kts | 218° |
| 2026-05-04 20:09 | 55.34651 | 12.29565 | 11597 ft | 327 kts | 218° |
| 2026-05-04 20:09 | 55.32769 | 12.27292 | 12294 ft | 330 kts | 218° |
| 2026-05-04 20:10 | 55.30871 | 12.24999 | 12995 ft | 332 kts | 218° |
| 2026-05-04 20:10 | 55.28960 | 12.22691 | 13714 ft | 335 kts | 218° |
| 2026-05-04 20:10 | 55.27031 | 12.20364 | 14332 ft | 338 kts | 218° |
| 2026-05-04 20:10 | 55.25084 | 12.18017 | 14925 ft | 341 kts | 218° |
| 2026-05-04 20:11 | 55.23120 | 12.15650 | 15510 ft | 344 kts | 218° |
| 2026-05-04 20:11 | 55.21138 | 12.13258 | 16089 ft | 347 kts | 218° |
| 2026-05-04 20:11 | 55.19143 | 12.10832 | 16669 ft | 351 kts | 218° |
| 2026-05-04 20:11 | 55.17156 | 12.08329 | 17260 ft | 353 kts | 219° |
| 2026-05-04 20:12 | 55.15168 | 12.05770 | 17853 ft | 356 kts | 219° |
| 2026-05-04 20:12 | 55.13169 | 12.03175 | 18428 ft | 360 kts | 219° |
| 2026-05-04 20:12 | 55.11149 | 12.00561 | 18972 ft | 363 kts | 219° |
| 2026-05-04 20:12 | 55.09107 | 11.97939 | 19543 ft | 365 kts | 219° |
| 2026-05-04 20:13 | 55.07051 | 11.95310 | 20122 ft | 368 kts | 219° |
| 2026-05-04 20:13 | 55.04978 | 11.92670 | 20693 ft | 370 kts | 219° |
| 2026-05-04 20:13 | 55.02887 | 11.90013 | 21253 ft | 372 kts | 219° |
| 2026-05-04 20:13 | 55.00788 | 11.87348 | 21778 ft | 375 kts | 219° |
| 2026-05-04 20:14 | 54.98678 | 11.84674 | 21941 ft | 376 kts | 219° |
| 2026-05-04 20:14 | 54.96551 | 11.81985 | 21973 ft | 379 kts | 219° |
| 2026-05-04 20:14 | 54.94415 | 11.79293 | 21972 ft | 379 kts | 219° |
| 2026-05-04 20:14 | 54.92277 | 11.76603 | 21976 ft | 379 kts | 219° |
| 2026-05-04 20:15 | 54.90144 | 11.73917 | 21974 ft | 379 kts | 220° |
| 2026-05-04 20:15 | 54.88011 | 11.71230 | 21975 ft | 378 kts | 220° |
| 2026-05-04 20:15 | 54.85877 | 11.68548 | 21977 ft | 378 kts | 219° |
| 2026-05-04 20:15 | 54.83745 | 11.65875 | 21976 ft | 378 kts | 220° |
| 2026-05-04 20:16 | 54.81643 | 11.63242 | 21981 ft | 378 kts | 220° |
| 2026-05-04 20:16 | 54.79514 | 11.60577 | 21976 ft | 378 kts | 220° |
| 2026-05-04 20:16 | 54.77383 | 11.57914 | 21979 ft | 378 kts | 220° |
| 2026-05-04 20:16 | 54.75253 | 11.55254 | 21977 ft | 377 kts | 220° |
| 2026-05-04 20:17 | 54.73135 | 11.52570 | 21984 ft | 377 kts | 220° |
| 2026-05-04 20:17 | 54.71034 | 11.49854 | 21982 ft | 377 kts | 221° |
| 2026-05-04 20:17 | 54.68942 | 11.47120 | 21986 ft | 377 kts | 221° |
| 2026-05-04 20:17 | 54.66860 | 11.44384 | 21989 ft | 376 kts | 221° |
| 2026-05-04 20:18 | 54.64782 | 11.41662 | 21851 ft | 371 kts | 221° |
| 2026-05-04 20:18 | 54.62745 | 11.39016 | 21585 ft | 362 kts | 221° |
| 2026-05-04 20:18 | 54.60750 | 11.36436 | 21321 ft | 354 kts | 221° |
| 2026-05-04 20:18 | 54.58791 | 11.33908 | 21057 ft | 350 kts | 221° |
| 2026-05-04 20:19 | 54.56851 | 11.31406 | 20804 ft | 348 kts | 221° |
| 2026-05-04 20:19 | 54.54916 | 11.28912 | 20553 ft | 347 kts | 220° |
| 2026-05-04 20:19 | 54.52987 | 11.26431 | 20298 ft | 346 kts | 220° |
| 2026-05-04 20:19 | 54.51061 | 11.23962 | 20047 ft | 345 kts | 220° |
| 2026-05-04 20:20 | 54.49138 | 11.21499 | 19802 ft | 344 kts | 220° |
| 2026-05-04 20:20 | 54.47224 | 11.19046 | 19549 ft | 343 kts | 220° |
| 2026-05-04 20:20 | 54.45313 | 11.16599 | 19307 ft | 342 kts | 220° |
| 2026-05-04 20:20 | 54.43407 | 11.14160 | 19063 ft | 341 kts | 220° |
| 2026-05-04 20:21 | 54.41506 | 11.11731 | 18824 ft | 340 kts | 220° |
| 2026-05-04 20:21 | 54.39611 | 11.09313 | 18588 ft | 339 kts | 219° |
| 2026-05-04 20:21 | 54.35875 | 11.04548 | 17823 ft | 331 kts | 219° |
| 2026-05-04 20:22 | 54.34036 | 11.02211 | 17386 ft | 327 kts | 219° |
| 2026-05-04 20:22 | 54.32215 | 10.99903 | 16964 ft | 324 kts | 219° |
| 2026-05-04 20:22 | 54.30410 | 10.97615 | 16526 ft | 321 kts | 219° |
| 2026-05-04 20:22 | 54.28620 | 10.95346 | 16099 ft | 319 kts | 219° |
| 2026-05-04 20:23 | 54.26840 | 10.93092 | 15672 ft | 317 kts | 219° |
| 2026-05-04 20:23 | 54.25070 | 10.90858 | 15252 ft | 315 kts | 219° |
| 2026-05-04 20:23 | 54.23335 | 10.88671 | 14836 ft | 314 kts | 219° |
| 2026-05-04 20:23 | 54.21579 | 10.86459 | 14412 ft | 313 kts | 219° |
| 2026-05-04 20:24 | 54.19829 | 10.84254 | 13987 ft | 312 kts | 219° |
| 2026-05-04 20:24 | 54.18084 | 10.82054 | 13535 ft | 311 kts | 219° |
| 2026-05-04 20:24 | 54.16347 | 10.79867 | 13104 ft | 309 kts | 219° |
| 2026-05-04 20:24 | 54.14621 | 10.77697 | 12685 ft | 307 kts | 219° |
| 2026-05-04 20:25 | 54.12907 | 10.75547 | 12267 ft | 305 kts | 219° |
| 2026-05-04 20:25 | 54.11201 | 10.73411 | 11858 ft | 303 kts | 219° |
| 2026-05-04 20:25 | 54.09504 | 10.71285 | 11450 ft | 302 kts | 219° |
| 2026-05-04 20:25 | 54.07816 | 10.69171 | 11045 ft | 301 kts | 219° |
| 2026-05-04 20:26 | 54.06133 | 10.67063 | 10636 ft | 300 kts | 219° |
| 2026-05-04 20:26 | 54.04459 | 10.64975 | 10343 ft | 295 kts | 219° |
| 2026-05-04 20:26 | 54.02833 | 10.62954 | 10221 ft | 284 kts | 219° |
| 2026-05-04 20:26 | 54.01260 | 10.61002 | 10033 ft | 277 kts | 219° |
| 2026-05-04 20:27 | 53.99726 | 10.59098 | 9938 ft | 271 kts | 219° |
| 2026-05-04 20:27 | 53.98204 | 10.57207 | 9737 ft | 270 kts | 219° |
| 2026-05-04 20:27 | 53.96673 | 10.55303 | 9208 ft | 275 kts | 219° |
| 2026-05-04 20:27 | 53.95149 | 10.53408 | 8706 ft | 269 kts | 219° |
| 2026-05-04 20:28 | 53.93653 | 10.51548 | 8221 ft | 265 kts | 219° |
| 2026-05-04 20:28 | 53.92170 | 10.49708 | 7767 ft | 263 kts | 219° |
| 2026-05-04 20:28 | 53.90719 | 10.47910 | 7298 ft | 261 kts | 219° |
| 2026-05-04 20:28 | 53.89254 | 10.46098 | 6848 ft | 262 kts | 219° |
| 2026-05-04 20:29 | 53.87772 | 10.44267 | 6432 ft | 264 kts | 218° |
| 2026-05-04 20:29 | 53.86290 | 10.42442 | 6014 ft | 266 kts | 218° |
| 2026-05-04 20:29 | 53.84805 | 10.40615 | 5800 ft | 259 kts | 218° |
| 2026-05-04 20:29 | 53.83373 | 10.38853 | 5677 ft | 250 kts | 218° |
| 2026-05-04 20:30 | 53.82000 | 10.37120 | 5571 ft | 242 kts | 222° |
| 2026-05-04 20:30 | 53.80776 | 10.35058 | 5330 ft | 253 kts | 230° |
| 2026-05-04 20:30 | 53.79663 | 10.32790 | 5013 ft | 246 kts | 232° |
| 2026-05-04 20:30 | 53.78605 | 10.30585 | 4692 ft | 237 kts | 232° |
| 2026-05-04 20:31 | 53.77579 | 10.28474 | 4380 ft | 228 kts | 232° |
| 2026-05-04 20:31 | 53.76604 | 10.26476 | 4071 ft | 220 kts | 232° |
| 2026-05-04 20:31 | 53.75651 | 10.24523 | 3792 ft | 212 kts | 232° |
| 2026-05-04 20:31 | 53.74731 | 10.22640 | 3515 ft | 204 kts | 232° |
| 2026-05-04 20:32 | 53.73845 | 10.20829 | 3259 ft | 198 kts | 232° |
| 2026-05-04 20:32 | 53.72981 | 10.19062 | 3002 ft | 193 kts | 232° |
| 2026-05-04 20:32 | 53.72133 | 10.17329 | 2723 ft | 190 kts | 232° |
| 2026-05-04 20:32 | 53.71300 | 10.15630 | 2466 ft | 186 kts | 232° |
| 2026-05-04 20:33 | 53.70489 | 10.13977 | 2213 ft | 179 kts | 232° |
| 2026-05-04 20:33 | 53.69706 | 10.12381 | 1980 ft | 175 kts | 232° |
| 2026-05-04 20:33 | 53.68937 | 10.10813 | 1773 ft | 173 kts | 232° |
| 2026-05-04 20:33 | 53.68198 | 10.09311 | 1508 ft | 157 kts | 231° |
| 2026-05-04 20:34 | 53.67523 | 10.07938 | 1269 ft | 148 kts | 232° |
| 2026-05-04 20:34 | 53.66873 | 10.06618 | 1079 ft | 145 kts | 232° |
| 2026-05-04 20:34 | 53.66232 | 10.05311 | 895 ft | 144 kts | 233° |
| 2026-05-04 20:34 | 53.65595 | 10.04015 | 699 ft | 144 kts | 233° |
| 2026-05-04 20:35 | 53.64960 | 10.02725 | 505 ft | 142 kts | 232° |
| 2026-05-04 20:35 | 53.64333 | 10.01447 | 310 ft | 141 kts | 232° |
| 2026-05-04 20:35 | 53.63705 | 10.00177 | 122 ft | 141 kts | 232° |
| 2026-05-04 20:35 | 53.63108 | 9.98963 | 52 ft | 119 kts | 231° |
| 2026-05-04 20:36 | 53.62688 | 9.98117 | 50 ft | 69 kts | 231° |
| 2026-05-04 20:36 | 53.62508 | 9.97780 | 46 ft | 18 kts | 194° |
| 2026-05-04 20:36 | 53.62432 | 9.97913 | 50 ft | 17 kts | 89° |
| 2026-05-04 20:36 | 53.62451 | 9.98104 | 47 ft | 16 kts | 80° |
| 2026-05-04 20:37 | 53.62473 | 9.98305 | 50 ft | 18 kts | 79° |
| 2026-05-04 20:37 | 53.62499 | 9.98529 | 51 ft | 21 kts | 79° |
| 2026-05-04 20:37 | 53.62528 | 9.98785 | 51 ft | 24 kts | 79° |
| 2026-05-04 20:37 | 53.62561 | 9.99070 | 51 ft | 26 kts | 79° |
| 2026-05-04 20:38 | 53.62597 | 9.99381 | 48 ft | 28 kts | 80° |
| 2026-05-04 20:38 | 53.62626 | 9.99643 | 50 ft | 14 kts | 77° |
| 2026-05-04 20:38 | 53.62646 | 9.99787 | 50 ft | 14 kts | 65° |
| 2026-05-04 20:38 | 53.62731 | 9.99894 | 49 ft | 17 kts | 29° |
| 2026-05-04 20:39 | 53.62805 | 9.99963 | 50 ft | 9 kts | 31° |
| 2026-05-04 20:39 | 53.62848 | 10.00019 | 50 ft | 8 kts | 62° |
| 2026-05-04 20:39 | 53.62823 | 10.00099 | 50 ft | 9 kts | 139° |
| 2026-05-04 20:39 | 53.62830 | 10.00176 | 48 ft | 6 kts | 62° |
| 2026-05-04 20:40 | 53.62839 | 10.00207 | 50 ft | 2 kts | 63° |
| 2026-05-04 20:40 | 53.62840 | 10.00208 | 50 ft | 0 kts | 63° |